createdAt,value
2022-09-21T00:08:58.151Z,9.12
2022-09-21T00:19:03.784Z,9.21
2022-09-21T00:29:08.091Z,9.36
2022-09-21T00:39:13.296Z,9.05
2022-09-21T00:49:17.979Z,8.98
2022-09-21T00:59:28.043Z,8.81
2022-09-21T01:09:34.052Z,8.65
2022-09-21T01:20:15.860Z,8.64
2022-09-21T01:30:22.807Z,8.56
2022-09-21T01:40:35.309Z,8.51
2022-09-21T01:50:46.506Z,8.40
2022-09-21T02:00:53.624Z,8.36
2022-09-21T02:11:00.601Z,7.96
2022-09-21T02:21:11.356Z,8.10
2022-09-21T02:31:23.902Z,7.88
2022-09-21T02:41:32.416Z,7.90
2022-09-21T02:51:44.399Z,7.80
2022-09-21T03:01:50.330Z,7.67
2022-09-21T03:11:58.000Z,7.73
2022-09-21T03:22:01.598Z,7.69
2022-09-21T03:32:07.279Z,7.59
2022-09-21T03:42:13.208Z,7.61
2022-09-21T03:52:18.304Z,7.50
2022-09-21T04:02:25.099Z,7.38
2022-09-21T04:12:30.129Z,7.18
2022-09-21T04:22:33.781Z,7.31
2022-09-21T04:32:38.770Z,7.35
2022-09-21T04:42:42.623Z,7.36
2022-09-21T04:52:47.646Z,7.04
2022-09-21T05:02:51.639Z,6.92
2022-09-21T05:12:57.038Z,6.87
2022-09-21T05:23:02.666Z,6.88
2022-09-21T05:33:09.728Z,6.78
2022-09-21T05:43:14.092Z,6.93
2022-09-21T05:53:40.356Z,7.05
2022-09-21T06:03:44.945Z,7.84
2022-09-21T06:13:49.961Z,7.87
2022-09-21T06:23:54.581Z,8.11
2022-09-21T06:34:00.186Z,8.34
2022-09-21T06:44:06.861Z,8.67
2022-09-21T06:54:13.195Z,9.06
2022-09-21T07:04:16.901Z,9.39
2022-09-21T07:14:22.505Z,9.80
2022-09-21T07:24:26.140Z,10.40
2022-09-21T07:34:31.385Z,10.35
2022-09-21T07:44:35.178Z,10.51
2022-09-21T07:54:40.296Z,11.01
2022-09-21T08:04:44.041Z,11.23
2022-09-21T08:14:50.216Z,11.65
2022-09-21T08:24:55.028Z,11.79
2022-09-21T08:35:00.216Z,11.92
2022-09-21T08:45:10.020Z,12.36
2022-09-21T08:55:19.802Z,12.57
2022-09-21T09:05:42.149Z,12.96
2022-09-21T09:16:12.483Z,12.85
2022-09-21T09:26:23.987Z,13.21
2022-09-21T09:36:56.657Z,13.56
2022-09-21T09:47:06.696Z,13.66
2022-09-21T09:57:13.590Z,14.00
2022-09-21T10:07:20.266Z,14.15
2022-09-21T10:17:26.360Z,14.55
2022-09-21T10:27:35.417Z,14.55
2022-09-21T10:37:42.545Z,15.04
2022-09-21T10:47:50.786Z,15.27
2022-09-21T10:57:56.898Z,15.38
2022-09-21T11:08:08.142Z,15.73
2022-09-21T11:18:23.617Z,15.61
2022-09-21T11:28:33.528Z,15.79
2022-09-21T11:38:53.322Z,15.81
2022-09-21T11:49:15.810Z,16.06
2022-09-21T11:59:41.270Z,16.35
2022-09-21T12:10:10.903Z,16.79
2022-09-21T12:20:26.315Z,16.93
2022-09-21T12:30:32.366Z,16.77
2022-09-21T12:40:43.417Z,16.96
2022-09-21T12:50:55.131Z,16.76
2022-09-21T13:01:12.220Z,16.96
2022-09-21T13:11:21.071Z,17.46
2022-09-21T13:21:30.846Z,17.89
2022-09-21T13:31:57.662Z,17.78
2022-09-21T13:42:46.682Z,17.15
2022-09-21T13:52:54.348Z,16.50
2022-09-21T14:03:04.365Z,16.86
2022-09-21T14:13:29.014Z,16.70
2022-09-21T14:23:34.260Z,17.49
2022-09-21T14:33:48.090Z,18.05
2022-09-21T14:43:57.491Z,18.64
2022-09-21T14:54:31.344Z,18.65
2022-09-21T15:04:54.504Z,18.76
2022-09-21T15:15:21.726Z,18.55
2022-09-21T15:25:30.349Z,17.96
2022-09-21T15:35:35.376Z,17.42
2022-09-21T15:45:51.665Z,16.80
2022-09-21T15:55:55.435Z,16.83
2022-09-21T16:06:02.661Z,16.36
2022-09-21T16:16:09.373Z,16.09
2022-09-21T16:26:24.505Z,15.90
2022-09-21T16:36:44.747Z,15.62
2022-09-21T16:46:56.428Z,15.37
2022-09-21T16:57:02.754Z,15.01
2022-09-21T17:07:08.247Z,14.56
2022-09-21T17:17:18.113Z,14.09
2022-09-21T17:27:29.032Z,13.64
2022-09-21T17:37:33.768Z,13.20
2022-09-21T17:47:39.846Z,12.89
2022-09-21T17:57:56.546Z,12.66
2022-09-21T18:08:02.454Z,12.60
2022-09-21T18:18:18.703Z,12.51
2022-09-21T18:28:34.474Z,12.60
2022-09-21T18:38:44.129Z,12.41
2022-09-21T18:49:00.395Z,12.41
2022-09-21T18:59:07.022Z,11.94
2022-09-21T19:09:37.454Z,11.83
2022-09-21T19:19:54.214Z,11.55
2022-09-21T19:30:08.456Z,11.38
2022-09-21T19:40:13.324Z,11.22
2022-09-21T19:50:25.904Z,10.96
2022-09-21T20:00:31.232Z,10.82
2022-09-21T20:10:52.772Z,10.64
2022-09-21T20:20:57.361Z,10.50
2022-09-21T20:31:02.654Z,10.36
2022-09-21T20:41:12.871Z,10.19
2022-09-21T20:51:17.867Z,10.08
2022-09-21T21:01:21.830Z,9.90
2022-09-21T21:11:27.968Z,9.74
2022-09-21T21:21:31.858Z,9.74
2022-09-21T21:31:37.242Z,9.52
2022-09-21T21:41:43.372Z,9.38
2022-09-21T21:51:49.261Z,9.28
2022-09-21T22:01:53.105Z,9.01
2022-09-21T22:11:58.802Z,9.02
2022-09-21T22:22:02.561Z,8.95
2022-09-21T22:32:07.672Z,8.83
2022-09-21T22:42:12.921Z,8.78
2022-09-21T22:52:17.929Z,8.59
2022-09-21T23:02:21.559Z,8.66
2022-09-21T23:12:26.585Z,8.60
2022-09-21T23:22:30.161Z,8.48
2022-09-21T23:32:36.647Z,8.37
2022-09-21T23:42:40.306Z,8.33
2022-09-21T23:52:45.268Z,8.28
